createdAt,value
2023-06-04T00:01:57.183Z,100916.23
2023-06-04T00:04:27.115Z,100918.95
2023-06-04T00:06:55.490Z,100918.59
2023-06-04T00:09:23.540Z,100916.05
2023-06-04T00:11:51.981Z,100917.66
2023-06-04T00:14:20.301Z,100919.33
2023-06-04T00:16:48.432Z,100921.16
2023-06-04T00:19:16.774Z,100924.00
2023-06-04T00:21:46.052Z,100921.91
2023-06-04T00:24:14.300Z,100927.02
2023-06-04T00:26:42.606Z,100932.44
2023-06-04T00:29:10.992Z,100928.75
2023-06-04T00:31:39.191Z,100932.70
2023-06-04T00:34:07.211Z,100933.64
2023-06-04T00:36:35.514Z,100933.70
2023-06-04T00:39:04.201Z,100937.95
2023-06-04T00:41:32.296Z,100940.88
2023-06-04T00:44:02.058Z,100944.29
2023-06-04T00:46:31.732Z,100944.61
2023-06-04T00:49:00.270Z,100944.73
2023-06-04T00:51:31.101Z,100943.78
2023-06-04T00:54:00.042Z,100943.23
2023-06-04T00:56:28.729Z,100943.56
2023-06-04T00:58:56.775Z,100945.31
2023-06-04T01:01:43.539Z,100942.40
2023-06-04T01:04:42.976Z,100946.15
2023-06-04T01:07:14.941Z,100941.90
2023-06-04T01:09:45.719Z,100942.01
2023-06-04T01:12:14.064Z,100944.27
2023-06-04T01:14:42.239Z,100946.09
2023-06-04T01:17:37.623Z,100945.86
2023-06-04T01:20:18.621Z,100943.92
2023-06-04T01:22:54.777Z,100942.53
2023-06-04T01:25:32.063Z,100939.56
2023-06-04T01:28:01.365Z,100939.68
2023-06-04T01:30:33.335Z,100934.27
2023-06-04T01:33:02.663Z,100938.85
2023-06-04T01:35:33.457Z,100936.71
2023-06-04T01:38:01.391Z,100935.11
2023-06-04T01:40:30.227Z,100942.23
2023-06-04T01:43:02.095Z,100937.33
2023-06-04T01:45:30.914Z,100937.51
2023-06-04T01:48:01.423Z,100942.31
2023-06-04T01:50:29.687Z,100938.84
2023-06-04T01:53:01.032Z,100944.31
2023-06-04T01:55:33.811Z,100943.09
2023-06-04T01:58:01.877Z,100944.86
2023-06-04T02:00:32.615Z,100940.66
2023-06-04T02:03:01.164Z,100945.04
2023-06-04T02:05:32.308Z,100947.95
2023-06-04T02:08:02.777Z,100949.29
2023-06-04T02:10:33.910Z,100953.38
2023-06-04T02:13:03.762Z,100954.98
2023-06-04T02:15:33.164Z,100952.89
2023-06-04T02:18:18.477Z,100952.84
2023-06-04T02:20:48.458Z,100959.30
2023-06-04T02:23:20.564Z,100964.54
2023-06-04T02:25:50.237Z,100973.20
2023-06-04T02:28:18.380Z,100975.48
2023-06-04T02:30:47.576Z,100978.61
2023-06-04T02:33:15.885Z,100980.66
2023-06-04T02:35:43.949Z,100985.02
2023-06-04T02:38:12.641Z,100984.20
2023-06-04T02:40:43.050Z,100987.52
2023-06-04T02:43:11.314Z,100991.42
2023-06-04T02:45:41.026Z,100995.85
2023-06-04T02:48:17.942Z,100995.40
2023-06-04T02:50:46.389Z,100998.50
2023-06-04T02:53:14.657Z,100996.13
2023-06-04T02:55:42.890Z,100998.67
2023-06-04T02:58:16.230Z,101001.38
2023-06-04T03:00:44.138Z,100998.90
2023-06-04T03:03:22.844Z,100997.63
2023-06-04T03:05:53.124Z,100999.12
2023-06-04T03:08:21.137Z,101002.76
2023-06-04T03:10:51.026Z,101010.70
2023-06-04T03:13:18.803Z,101011.31
2023-06-04T03:15:49.124Z,101014.73
2023-06-04T03:18:17.154Z,101017.82
2023-06-04T03:20:45.058Z,101022.73
2023-06-04T03:23:13.159Z,101028.52
2023-06-04T03:25:41.099Z,101036.90
2023-06-04T03:28:09.376Z,101040.65
2023-06-04T03:30:41.133Z,101040.05
2023-06-04T03:33:10.404Z,101043.08
2023-06-04T03:35:42.918Z,101050.41
2023-06-04T03:38:10.951Z,101049.04
2023-06-04T03:40:39.766Z,101056.20
2023-06-04T03:43:10.937Z,101051.07
2023-06-04T03:45:38.950Z,101049.02
2023-06-04T03:48:08.555Z,101049.08
2023-06-04T03:50:37.931Z,101052.73
2023-06-04T03:53:09.112Z,101048.98
2023-06-04T03:55:40.793Z,101053.23
2023-06-04T03:58:11.948Z,101058.68
2023-06-04T04:00:42.905Z,101064.86
2023-06-04T04:03:10.899Z,101064.48
2023-06-04T04:05:39.356Z,101071.64
2023-06-04T04:08:09.421Z,101073.50
2023-06-04T04:10:37.637Z,101073.56
2023-06-04T04:13:06.112Z,101076.64
2023-06-04T04:15:39.201Z,101073.83
2023-06-04T04:18:11.291Z,101075.81
2023-06-04T04:20:42.417Z,101077.45
2023-06-04T04:23:11.917Z,101080.32
2023-06-04T04:25:41.828Z,101083.73
2023-06-04T04:28:10.414Z,101085.11
2023-06-04T04:30:39.794Z,101089.35
2023-06-04T04:33:19.477Z,101088.86
2023-06-04T04:35:48.697Z,101087.38
2023-06-04T04:38:20.026Z,101089.19
2023-06-04T04:40:52.991Z,101090.63
2023-06-04T04:43:35.576Z,101093.16
2023-06-04T04:46:16.098Z,101094.10
2023-06-04T04:48:44.482Z,101097.08
2023-06-04T04:51:12.515Z,101093.39
2023-06-04T04:53:40.846Z,101093.89
2023-06-04T04:56:08.905Z,101091.69
2023-06-04T04:58:39.726Z,101093.62
2023-06-04T05:01:07.950Z,101095.33
2023-06-04T05:03:36.689Z,101097.16
2023-06-04T05:06:05.148Z,101101.57
2023-06-04T05:08:33.344Z,101103.34
2023-06-04T05:11:01.521Z,101108.38
2023-06-04T05:13:30.078Z,101108.88
2023-06-04T05:16:07.195Z,101114.89
2023-06-04T05:18:41.903Z,101120.36
2023-06-04T05:21:12.822Z,101125.66
2023-06-04T05:23:45.829Z,101128.14
2023-06-04T05:26:14.196Z,101130.63
2023-06-04T05:28:46.052Z,101132.52
2023-06-04T05:31:16.306Z,101133.05
2023-06-04T05:33:45.365Z,101136.58
2023-06-04T05:36:15.810Z,101133.96
2023-06-04T05:38:57.581Z,101137.70
2023-06-04T05:41:28.023Z,101136.89
2023-06-04T05:43:56.314Z,101137.00
2023-06-04T05:46:24.833Z,101139.16
2023-06-04T05:48:54.804Z,101140.38
2023-06-04T05:51:23.174Z,101135.54
2023-06-04T05:53:51.817Z,101140.00
2023-06-04T05:56:21.678Z,101141.15
2023-06-04T05:58:53.559Z,101140.13
2023-06-04T06:01:22.419Z,101140.23
2023-06-04T06:03:51.447Z,101143.40
2023-06-04T06:06:21.558Z,101147.08
2023-06-04T06:08:50.244Z,101150.16
2023-06-04T06:11:18.943Z,101147.37
2023-06-04T06:13:47.298Z,101148.72
2023-06-04T06:16:17.932Z,101149.79
2023-06-04T06:18:45.923Z,101154.55
2023-06-04T06:21:14.289Z,101150.63
2023-06-04T06:23:42.824Z,101155.20
2023-06-04T06:26:13.392Z,101156.42
2023-06-04T06:28:47.297Z,101157.30
2023-06-04T06:31:16.712Z,101157.38
2023-06-04T06:33:45.188Z,101151.55
2023-06-04T06:36:14.075Z,101150.80
2023-06-04T06:38:46.859Z,101156.80
2023-06-04T06:41:15.031Z,101157.27
2023-06-04T06:43:43.109Z,101150.52
2023-06-04T06:46:11.278Z,101153.21
2023-06-04T06:48:39.379Z,101150.39
2023-06-04T06:51:08.102Z,101150.46
2023-06-04T06:53:36.511Z,101157.63
2023-06-04T06:56:04.688Z,101158.85
2023-06-04T06:58:32.653Z,101154.90
2023-06-04T07:01:01.606Z,101155.58
2023-06-04T07:03:29.869Z,101155.61
2023-06-04T07:05:58.104Z,101154.17
2023-06-04T07:08:26.483Z,101154.73
2023-06-04T07:10:55.376Z,101156.44
2023-06-04T07:13:23.551Z,101157.52
2023-06-04T07:15:51.924Z,101151.16
2023-06-04T07:18:20.202Z,101156.55
2023-06-04T07:20:48.479Z,101154.75
2023-06-04T07:23:16.594Z,101155.43
2023-06-04T07:25:44.937Z,101164.04
2023-06-04T07:28:13.106Z,101158.46
2023-06-04T07:30:41.684Z,101159.25
2023-06-04T07:33:09.792Z,101172.60
2023-06-04T07:35:38.133Z,101172.83
2023-06-04T07:38:06.228Z,101178.80
2023-06-04T07:40:34.281Z,101179.97
2023-06-04T07:43:02.380Z,101185.44
2023-06-04T07:45:33.096Z,101175.86
2023-06-04T07:48:03.462Z,101175.41
2023-06-04T07:50:34.811Z,101173.55
2023-06-04T07:53:04.474Z,101177.91
2023-06-04T07:55:34.064Z,101177.25
2023-06-04T07:58:04.817Z,101174.39
2023-06-04T08:00:35.443Z,101178.45
2023-06-04T08:03:03.996Z,101176.02
2023-06-04T08:05:32.308Z,101174.38
2023-06-04T08:08:00.809Z,101185.02
2023-06-04T08:10:29.166Z,101181.51
2023-06-04T08:12:57.652Z,101180.59
2023-06-04T08:15:25.922Z,101182.70
2023-06-04T08:17:54.196Z,101174.27
2023-06-04T08:20:23.797Z,101172.64
2023-06-04T08:22:53.326Z,101164.27
2023-06-04T08:25:21.588Z,101170.91
2023-06-04T08:27:49.666Z,101170.45
2023-06-04T08:30:18.220Z,101172.77
2023-06-04T08:32:46.248Z,101171.60
2023-06-04T08:35:14.235Z,101177.44
2023-06-04T08:37:42.252Z,101170.33
2023-06-04T08:40:11.059Z,101168.25
2023-06-04T08:42:45.288Z,101170.01
2023-06-04T08:45:15.752Z,101172.11
2023-06-04T08:47:50.041Z,101170.61
2023-06-04T08:50:21.688Z,101164.92
2023-06-04T08:52:55.787Z,101169.02
2023-06-04T08:55:24.087Z,101162.11
2023-06-04T08:57:53.369Z,101174.73
2023-06-04T09:00:22.220Z,101175.95
2023-06-04T09:02:51.400Z,101182.95
2023-06-04T09:05:23.367Z,101186.58
2023-06-04T09:08:00.867Z,101187.77
2023-06-04T09:10:30.644Z,101189.85
2023-06-04T09:13:03.778Z,101188.13
2023-06-04T09:15:31.983Z,101191.59
2023-06-04T09:18:00.293Z,101192.87
2023-06-04T09:20:29.044Z,101190.55
2023-06-04T09:22:58.550Z,101186.13
2023-06-04T09:25:28.381Z,101187.83
2023-06-04T09:28:07.446Z,101183.69
2023-06-04T09:30:36.076Z,101192.38
2023-06-04T09:33:09.350Z,101189.02
2023-06-04T09:35:37.663Z,101181.71
2023-06-04T09:38:06.249Z,101189.11
2023-06-04T09:40:39.208Z,101192.98
2023-06-04T09:43:08.864Z,101186.52
2023-06-04T09:45:37.298Z,101186.60
2023-06-04T09:48:08.994Z,101181.26
2023-06-04T09:50:39.598Z,101177.02
2023-06-04T09:53:26.612Z,101176.45
2023-06-04T09:56:11.582Z,101180.94
2023-06-04T09:58:42.877Z,101183.21
2023-06-04T10:01:13.261Z,101182.42
2023-06-04T10:03:47.175Z,101184.64
2023-06-04T10:06:19.261Z,101184.45
2023-06-04T10:08:50.782Z,101178.89
2023-06-04T10:11:31.860Z,101168.81
2023-06-04T10:14:28.317Z,101169.42
2023-06-04T10:16:59.144Z,101171.02
2023-06-04T10:19:29.556Z,101175.58
2023-06-04T10:21:57.859Z,101171.13
2023-06-04T10:24:27.241Z,101174.85
2023-06-04T10:26:59.224Z,101183.29
2023-06-04T10:29:30.665Z,101180.84
2023-06-04T10:31:58.656Z,101176.48
2023-06-04T10:34:28.113Z,101175.29
2023-06-04T10:36:59.498Z,101180.86
2023-06-04T10:39:32.940Z,101176.49
2023-06-04T10:42:06.257Z,101175.34
2023-06-04T10:44:50.727Z,101173.24
2023-06-04T10:47:23.445Z,101167.56
2023-06-04T10:49:52.872Z,101163.94
2023-06-04T10:52:22.843Z,101158.17
2023-06-04T10:54:53.779Z,101157.96
2023-06-04T10:57:21.844Z,101155.19
2023-06-04T10:59:57.872Z,101154.98
2023-06-04T11:02:26.872Z,101155.27
2023-06-04T11:05:07.308Z,101152.42
2023-06-04T11:07:49.150Z,101148.05
2023-06-04T11:10:18.783Z,101150.90
2023-06-04T11:12:53.617Z,101146.21
2023-06-04T11:15:21.697Z,101145.29
2023-06-04T11:17:59.877Z,101145.63
2023-06-04T11:20:28.352Z,101140.54
2023-06-04T11:23:00.162Z,101139.21
2023-06-04T11:25:29.670Z,101134.08
2023-06-04T11:27:58.559Z,101127.76
2023-06-04T11:30:27.099Z,101126.34
2023-06-04T11:33:06.086Z,101130.95
2023-06-04T11:35:42.518Z,101124.96
2023-06-04T11:38:10.825Z,101123.63
2023-06-04T11:40:38.960Z,101125.13
2023-06-04T11:43:12.645Z,101125.39
2023-06-04T11:45:40.903Z,101124.63
2023-06-04T11:48:11.668Z,101123.55
2023-06-04T11:50:39.820Z,101120.98
2023-06-04T11:53:08.255Z,101117.55
2023-06-04T11:55:37.947Z,101122.63
2023-06-04T11:58:09.747Z,101123.41
2023-06-04T12:00:37.984Z,101125.04
2023-06-04T12:03:06.968Z,101122.35
2023-06-04T12:05:35.457Z,101122.86
2023-06-04T12:08:09.860Z,101119.05
2023-06-04T12:10:43.404Z,101115.65
2023-06-04T12:13:11.847Z,101115.66
2023-06-04T12:15:40.163Z,101115.06
2023-06-04T12:18:10.242Z,101119.81
2023-06-04T12:20:42.042Z,101114.00
2023-06-04T12:23:23.908Z,101117.16
2023-06-04T12:25:52.084Z,101118.89
2023-06-04T12:28:20.326Z,101115.11
2023-06-04T12:30:48.561Z,101113.58
2023-06-04T12:33:16.704Z,101112.67
2023-06-04T12:35:45.871Z,101112.02
2023-06-04T12:38:14.157Z,101113.73
2023-06-04T12:40:42.122Z,101116.16
2023-06-04T12:43:10.400Z,101108.19
2023-06-04T12:45:38.592Z,101106.52
2023-06-04T12:48:07.445Z,101109.27
2023-06-04T12:50:36.045Z,101106.25
2023-06-04T12:53:04.020Z,101103.76
2023-06-04T12:55:32.287Z,101103.40
2023-06-04T12:58:01.186Z,101104.18
2023-06-04T13:00:29.379Z,101103.65
2023-06-04T13:02:57.358Z,101107.50
2023-06-04T13:05:25.816Z,101111.02
2023-06-04T13:07:53.655Z,101109.27
2023-06-04T13:10:21.776Z,101109.65
2023-06-04T13:12:50.126Z,101109.58
2023-06-04T13:15:18.591Z,101107.85
2023-06-04T13:17:46.655Z,101106.23
2023-06-04T13:20:14.766Z,101104.58
2023-06-04T13:22:44.338Z,101109.09
2023-06-04T13:25:12.446Z,101101.69
2023-06-04T13:27:41.524Z,101100.86
2023-06-04T13:30:11.008Z,101102.51
2023-06-04T13:32:40.842Z,101104.09
2023-06-04T13:35:09.815Z,101099.34
2023-06-04T13:37:38.118Z,101097.98
2023-06-04T13:40:07.867Z,101099.06
2023-06-04T13:42:35.742Z,101096.56
2023-06-04T13:45:04.400Z,101094.08
2023-06-04T13:47:33.567Z,101096.07
2023-06-04T13:50:01.964Z,101096.52
2023-06-04T13:52:30.500Z,101094.52
2023-06-04T13:55:01.683Z,101092.09
2023-06-04T13:57:29.864Z,101089.96
2023-06-04T13:59:57.763Z,101089.59
2023-06-04T14:02:25.892Z,101086.75
2023-06-04T14:04:55.725Z,101085.83
2023-06-04T14:07:24.185Z,101083.48
2023-06-04T14:09:55.215Z,101080.96
2023-06-04T14:12:24.647Z,101081.48
2023-06-04T14:14:52.923Z,101081.20
2023-06-04T14:17:21.298Z,101077.08
2023-06-04T14:19:49.707Z,101075.23
2023-06-04T14:22:17.753Z,101075.88
2023-06-04T14:24:46.232Z,101071.48
2023-06-04T14:27:14.510Z,101070.96
2023-06-04T14:29:42.642Z,101070.88
2023-06-04T14:32:10.705Z,101069.77
2023-06-04T14:34:39.041Z,101065.86
2023-06-04T14:37:07.339Z,101064.91
2023-06-04T14:39:36.861Z,101064.86
2023-06-04T14:42:05.704Z,101062.66
2023-06-04T14:44:34.389Z,101059.31
2023-06-04T14:47:06.341Z,101060.34
2023-06-04T14:49:38.099Z,101057.00
2023-06-04T14:52:09.820Z,101056.29
2023-06-04T14:54:40.823Z,101055.52
2023-06-04T14:57:08.991Z,101053.95
2023-06-04T14:59:40.114Z,101052.77
2023-06-04T15:02:08.503Z,101048.07
2023-06-04T15:04:37.605Z,101049.30
2023-06-04T15:07:05.880Z,101046.58
2023-06-04T15:09:33.877Z,101046.55
2023-06-04T15:12:05.069Z,101044.98
2023-06-04T15:14:33.683Z,101042.08
2023-06-04T15:17:01.710Z,101039.70
2023-06-04T15:19:29.926Z,101039.14
2023-06-04T15:21:57.996Z,101032.65
2023-06-04T15:24:26.262Z,101031.33
2023-06-04T15:26:54.453Z,101028.83
2023-06-04T15:29:22.929Z,101029.23
2023-06-04T15:31:50.811Z,101028.80
2023-06-04T15:34:19.493Z,101027.05
2023-06-04T15:36:47.678Z,101027.21
2023-06-04T15:39:15.832Z,101022.48
2023-06-04T15:41:44.135Z,101023.07
2023-06-04T15:44:12.196Z,101025.18
2023-06-04T15:46:40.448Z,101033.23
2023-06-04T15:49:10.295Z,101034.11
2023-06-04T15:51:38.445Z,101027.88
2023-06-04T15:54:06.525Z,101024.75
2023-06-04T15:56:34.909Z,101027.06
2023-06-04T15:59:03.481Z,101027.85
2023-06-04T16:01:32.398Z,101030.02
2023-06-04T16:04:03.537Z,101027.73
2023-06-04T16:06:32.302Z,101029.63
2023-06-04T16:09:00.780Z,101034.55
2023-06-04T16:11:29.333Z,101032.04
2023-06-04T16:13:57.682Z,101026.33
2023-06-04T16:16:26.288Z,101026.80
2023-06-04T16:18:54.415Z,101027.79
2023-06-04T16:21:22.610Z,101031.07
2023-06-04T16:23:53.285Z,101028.48
2023-06-04T16:26:22.623Z,101028.84
2023-06-04T16:28:50.785Z,101031.33
2023-06-04T16:31:18.995Z,101026.83
2023-06-04T16:33:47.112Z,101026.29
2023-06-04T16:36:15.528Z,101028.32
2023-06-04T16:38:43.692Z,101030.09
2023-06-04T16:41:11.985Z,101026.95
2023-06-04T16:43:45.530Z,101022.51
2023-06-04T16:46:13.762Z,101025.04
2023-06-04T16:48:48.279Z,101024.73
2023-06-04T16:51:16.343Z,101026.69
2023-06-04T16:53:44.900Z,101024.98
2023-06-04T16:56:13.421Z,101025.70
2023-06-04T16:58:41.586Z,101030.82
2023-06-04T17:01:12.473Z,101026.82
2023-06-04T17:03:41.104Z,101026.77
2023-06-04T17:06:09.347Z,101027.26
2023-06-04T17:08:37.756Z,101026.29
2023-06-04T17:11:06.042Z,101028.73
2023-06-04T17:13:34.418Z,101028.39
2023-06-04T17:16:02.756Z,101027.80
2023-06-04T17:18:31.119Z,101028.22
2023-06-04T17:20:58.903Z,101029.16
2023-06-04T17:23:31.865Z,101028.48
2023-06-04T17:26:00.360Z,101029.61
2023-06-04T17:28:28.356Z,101029.42
2023-06-04T17:30:56.455Z,101026.89
2023-06-04T17:33:24.622Z,101027.96
2023-06-04T17:35:58.967Z,101027.48
2023-06-04T17:38:27.954Z,101028.38
2023-06-04T17:40:58.875Z,101031.77
2023-06-04T17:43:30.937Z,101030.94
2023-06-04T17:45:59.585Z,101030.95
2023-06-04T17:48:27.691Z,101033.65
2023-06-04T17:50:59.369Z,101034.45
2023-06-04T17:53:28.139Z,101035.11
2023-06-04T17:55:58.555Z,101035.39
2023-06-04T17:58:26.654Z,101036.93
2023-06-04T18:01:03.267Z,101037.73
2023-06-04T18:03:32.288Z,101039.04
2023-06-04T18:06:00.350Z,101041.00
2023-06-04T18:08:28.387Z,101043.80
2023-06-04T18:11:17.459Z,101044.91
2023-06-04T18:13:45.733Z,101049.66
2023-06-04T18:16:15.674Z,101049.35
2023-06-04T18:18:44.641Z,101050.09
2023-06-04T18:21:12.772Z,101051.25
2023-06-04T18:23:41.465Z,101056.11
2023-06-04T18:26:09.676Z,101063.95
2023-06-04T18:28:37.943Z,101065.43
2023-06-04T18:31:07.490Z,101067.47
2023-06-04T18:33:38.577Z,101069.83
2023-06-04T18:36:07.389Z,101072.73
2023-06-04T18:38:35.829Z,101072.34
2023-06-04T18:41:03.931Z,101074.34
2023-06-04T18:43:34.843Z,101073.61
2023-06-04T18:46:02.954Z,101078.59
2023-06-04T18:48:31.323Z,101076.27
2023-06-04T18:50:59.367Z,101078.86
2023-06-04T18:53:28.568Z,101079.17
2023-06-04T18:55:57.990Z,101079.61
2023-06-04T18:58:25.925Z,101079.02
2023-06-04T19:01:07.856Z,101078.98
2023-06-04T19:03:51.475Z,101079.30
2023-06-04T19:06:39.056Z,101073.42
2023-06-04T19:09:24.965Z,101077.32
2023-06-04T19:11:55.454Z,101081.89
2023-06-04T19:14:23.401Z,101085.84
2023-06-04T19:16:51.967Z,101086.45
2023-06-04T19:19:23.854Z,101091.39
2023-06-04T19:21:52.518Z,101091.23
2023-06-04T19:24:21.717Z,101093.65
2023-06-04T19:26:50.942Z,101092.99
2023-06-04T19:29:19.403Z,101090.42
2023-06-04T19:31:47.821Z,101087.52
2023-06-04T19:34:16.453Z,101083.02
2023-06-04T19:36:44.601Z,101081.11
2023-06-04T19:39:12.971Z,101082.76
2023-06-04T19:41:41.299Z,101084.30
2023-06-04T19:44:09.149Z,101083.88
2023-06-04T19:46:37.055Z,101091.15
2023-06-04T19:49:07.378Z,101091.52
2023-06-04T19:51:37.264Z,101090.59
2023-06-04T19:54:05.451Z,101093.80
2023-06-04T19:56:33.353Z,101087.84
2023-06-04T19:59:01.893Z,101087.33
2023-06-04T20:01:33.516Z,101086.86
2023-06-04T20:04:01.791Z,101082.52
2023-06-04T20:06:30.420Z,101078.53
2023-06-04T20:08:58.603Z,101080.73
2023-06-04T20:11:26.981Z,101080.00
2023-06-04T20:13:55.436Z,101078.55
2023-06-04T20:16:23.988Z,101073.98
2023-06-04T20:18:52.025Z,101071.67
2023-06-04T20:21:19.953Z,101068.29
2023-06-04T20:23:52.672Z,101066.65
2023-06-04T20:26:23.207Z,101068.83
2023-06-04T20:28:53.172Z,101076.09
2023-06-04T20:31:22.035Z,101076.17
2023-06-04T20:33:55.724Z,101072.55
2023-06-04T20:36:25.962Z,101066.70
2023-06-04T20:38:55.099Z,101064.29
2023-06-04T20:41:23.306Z,101068.45
2023-06-04T20:43:55.676Z,101069.80
2023-06-04T20:46:25.438Z,101066.83
2023-06-04T20:48:53.588Z,101064.48
2023-06-04T20:51:21.821Z,101067.02
2023-06-04T20:53:50.436Z,101069.73
2023-06-04T20:56:18.608Z,101064.17
2023-06-04T20:58:48.250Z,101068.43
2023-06-04T21:01:16.193Z,101068.66
2023-06-04T21:03:44.955Z,101066.73
2023-06-04T21:06:14.343Z,101065.42
2023-06-04T21:08:42.440Z,101064.12
2023-06-04T21:11:11.067Z,101058.94
2023-06-04T21:13:39.487Z,101059.43
2023-06-04T21:16:07.697Z,101059.10
2023-06-04T21:18:36.048Z,101063.79
2023-06-04T21:21:04.431Z,101085.64
2023-06-04T21:23:32.423Z,101089.63
2023-06-04T21:26:00.383Z,101091.56
2023-06-04T21:28:28.573Z,101090.89
2023-06-04T21:30:56.731Z,101092.66
2023-06-04T21:33:25.291Z,101093.54
2023-06-04T21:35:53.857Z,101076.11
2023-06-04T21:38:22.996Z,101088.02
2023-06-04T21:40:51.169Z,101092.15
2023-06-04T21:43:19.015Z,101087.08
2023-06-04T21:45:48.148Z,101095.06
2023-06-04T21:48:16.451Z,101096.00
2023-06-04T21:50:44.759Z,101093.95
2023-06-04T21:53:15.104Z,101093.79
2023-06-04T21:55:42.985Z,101094.39
2023-06-04T21:58:10.916Z,101090.63
2023-06-04T22:00:39.294Z,101088.15
2023-06-04T22:03:07.446Z,101086.77
2023-06-04T22:05:36.021Z,101083.08
2023-06-04T22:08:06.887Z,101083.19
2023-06-04T22:10:35.885Z,101082.69
2023-06-04T22:13:11.141Z,101086.21
2023-06-04T22:15:48.406Z,101087.91
2023-06-04T22:18:16.699Z,101089.17
2023-06-04T22:20:46.142Z,101085.52
2023-06-04T22:23:22.897Z,101086.17
2023-06-04T22:25:54.213Z,101082.91
2023-06-04T22:28:24.947Z,101081.50
2023-06-04T22:30:53.074Z,101081.73
2023-06-04T22:33:23.536Z,101081.69
2023-06-04T22:35:59.519Z,101081.56
2023-06-04T22:38:28.198Z,101075.93
2023-06-04T22:40:56.365Z,101080.61
2023-06-04T22:43:26.290Z,101085.52
2023-06-04T22:45:56.113Z,101085.83
2023-06-04T22:48:24.681Z,101087.52
2023-06-04T22:50:52.576Z,101082.95
2023-06-04T22:53:23.624Z,101088.02
2023-06-04T22:55:53.066Z,101087.23
2023-06-04T22:58:26.798Z,101086.89
2023-06-04T23:00:58.575Z,101083.09
2023-06-04T23:03:28.374Z,101085.89
2023-06-04T23:05:56.974Z,101079.88
2023-06-04T23:08:25.244Z,101077.27
2023-06-04T23:10:53.508Z,101073.30
2023-06-04T23:13:22.732Z,101070.20
2023-06-04T23:15:53.980Z,101068.59
2023-06-04T23:18:25.820Z,101071.01
2023-06-04T23:20:54.185Z,101070.55
2023-06-04T23:23:22.818Z,101073.31
2023-06-04T23:25:51.278Z,101066.09
2023-06-04T23:28:19.722Z,101063.73
2023-06-04T23:30:48.021Z,101064.17
2023-06-04T23:33:16.406Z,101062.52
2023-06-04T23:35:48.583Z,101057.13
2023-06-04T23:38:20.252Z,101057.73
2023-06-04T23:40:57.547Z,101061.64
2023-06-04T23:43:25.675Z,101061.03
2023-06-04T23:45:56.488Z,101061.95
2023-06-04T23:48:27.200Z,101060.46
2023-06-04T23:50:55.548Z,101067.89
2023-06-04T23:53:26.472Z,101066.98
2023-06-04T23:55:54.952Z,101068.45
2023-06-04T23:58:30.734Z,101065.69
